sensor_id;sensor_type;location;lat;lon;timestamp;P1;durP1;ratioP1;P2;durP2;ratioP2
51020;SDS011;38907;45.562;8.856;2024-01-16T00:03:38;71.70;;;50.88;;
51020;SDS011;38907;45.562;8.856;2024-01-16T00:08:41;72.15;;;50.80;;
51020;SDS011;38907;45.562;8.856;2024-01-16T00:13:44;72.15;;;51.65;;
51020;SDS011;38907;45.562;8.856;2024-01-16T00:18:45;71.65;;;49.85;;
51020;SDS011;38907;45.562;8.856;2024-01-16T00:23:49;71.32;;;49.38;;
51020;SDS011;38907;45.562;8.856;2024-01-16T00:28:50;79.88;;;53.03;;
51020;SDS011;38907;45.562;8.856;2024-01-16T00:33:52;77.03;;;51.95;;
51020;SDS011;38907;45.562;8.856;2024-01-16T00:38:55;72.15;;;50.78;;
51020;SDS011;38907;45.562;8.856;2024-01-16T00:43:57;88.85;;;58.78;;
51020;SDS011;38907;45.562;8.856;2024-01-16T00:48:59;89.38;;;58.75;;
51020;SDS011;38907;45.562;8.856;2024-01-16T00:54:02;78.43;;;53.97;;
51020;SDS011;38907;45.562;8.856;2024-01-16T00:59:06;81.60;;;54.72;;
51020;SDS011;38907;45.562;8.856;2024-01-16T01:04:08;83.53;;;56.00;;
51020;SDS011;38907;45.562;8.856;2024-01-16T01:09:11;79.53;;;56.72;;
51020;SDS011;38907;45.562;8.856;2024-01-16T01:14:13;87.72;;;60.88;;
51020;SDS011;38907;45.562;8.856;2024-01-16T01:19:15;90.25;;;58.53;;
51020;SDS011;38907;45.562;8.856;2024-01-16T01:24:18;83.72;;;57.20;;
51020;SDS011;38907;45.562;8.856;2024-01-16T01:29:20;90.07;;;58.90;;
51020;SDS011;38907;45.562;8.856;2024-01-16T01:34:21;86.53;;;59.90;;
51020;SDS011;38907;45.562;8.856;2024-01-16T01:39:24;95.10;;;61.92;;
51020;SDS011;38907;45.562;8.856;2024-01-16T01:44:26;97.80;;;65.28;;
51020;SDS011;38907;45.562;8.856;2024-01-16T01:49:28;99.72;;;65.13;;
51020;SDS011;38907;45.562;8.856;2024-01-16T01:54:33;113.32;;;74.65;;
51020;SDS011;38907;45.562;8.856;2024-01-16T01:59:36;106.32;;;69.20;;
51020;SDS011;38907;45.562;8.856;2024-01-16T02:04:38;106.32;;;71.88;;
51020;SDS011;38907;45.562;8.856;2024-01-16T02:09:42;106.38;;;70.20;;
51020;SDS011;38907;45.562;8.856;2024-01-16T02:14:44;105.43;;;71.28;;
51020;SDS011;38907;45.562;8.856;2024-01-16T02:19:46;93.90;;;63.40;;
51020;SDS011;38907;45.562;8.856;2024-01-16T02:24:49;102.78;;;67.72;;
51020;SDS011;38907;45.562;8.856;2024-01-16T02:29:52;100.45;;;69.88;;
51020;SDS011;38907;45.562;8.856;2024-01-16T02:34:53;96.18;;;65.20;;
51020;SDS011;38907;45.562;8.856;2024-01-16T02:39:56;98.30;;;67.38;;
51020;SDS011;38907;45.562;8.856;2024-01-16T02:44:58;101.03;;;68.93;;
51020;SDS011;38907;45.562;8.856;2024-01-16T02:50:00;99.35;;;67.22;;
51020;SDS011;38907;45.562;8.856;2024-01-16T02:55:04;103.82;;;69.22;;
51020;SDS011;38907;45.562;8.856;2024-01-16T03:00:07;104.53;;;71.00;;
51020;SDS011;38907;45.562;8.856;2024-01-16T03:05:09;101.85;;;69.78;;
51020;SDS011;38907;45.562;8.856;2024-01-16T03:10:13;107.78;;;72.63;;
51020;SDS011;38907;45.562;8.856;2024-01-16T03:15:15;99.93;;;70.22;;
51020;SDS011;38907;45.562;8.856;2024-01-16T03:20:17;112.85;;;75.75;;
51020;SDS011;38907;45.562;8.856;2024-01-16T03:25:20;114.38;;;75.70;;
51020;SDS011;38907;45.562;8.856;2024-01-16T03:30:22;109.82;;;75.88;;
51020;SDS011;38907;45.562;8.856;2024-01-16T03:35:24;110.13;;;75.63;;
51020;SDS011;38907;45.562;8.856;2024-01-16T03:40:27;107.32;;;73.07;;
51020;SDS011;38907;45.562;8.856;2024-01-16T03:45:34;113.30;;;74.97;;
51020;SDS011;38907;45.562;8.856;2024-01-16T03:50:35;109.10;;;75.53;;
51020;SDS011;38907;45.562;8.856;2024-01-16T03:55:38;125.47;;;80.03;;
51020;SDS011;38907;45.562;8.856;2024-01-16T04:00:40;113.70;;;76.05;;
51020;SDS011;38907;45.562;8.856;2024-01-16T04:05:42;120.70;;;74.53;;
51020;SDS011;38907;45.562;8.856;2024-01-16T04:10:45;111.72;;;74.00;;
51020;SDS011;38907;45.562;8.856;2024-01-16T04:15:47;127.35;;;79.70;;
51020;SDS011;38907;45.562;8.856;2024-01-16T04:20:49;114.55;;;77.38;;
51020;SDS011;38907;45.562;8.856;2024-01-16T04:25:52;123.22;;;79.65;;
51020;SDS011;38907;45.562;8.856;2024-01-16T04:30:54;114.43;;;74.43;;
51020;SDS011;38907;45.562;8.856;2024-01-16T04:35:56;124.50;;;82.32;;
51020;SDS011;38907;45.562;8.856;2024-01-16T04:41:02;122.10;;;80.60;;
51020;SDS011;38907;45.562;8.856;2024-01-16T04:46:04;127.10;;;80.72;;
51020;SDS011;38907;45.562;8.856;2024-01-16T04:51:05;121.20;;;78.72;;
51020;SDS011;38907;45.562;8.856;2024-01-16T04:56:10;127.90;;;80.93;;
51020;SDS011;38907;45.562;8.856;2024-01-16T05:01:12;125.97;;;82.50;;
51020;SDS011;38907;45.562;8.856;2024-01-16T05:06:14;119.57;;;78.95;;
51020;SDS011;38907;45.562;8.856;2024-01-16T05:11:18;116.25;;;79.90;;
51020;SDS011;38907;45.562;8.856;2024-01-16T05:16:20;132.80;;;86.18;;
51020;SDS011;38907;45.562;8.856;2024-01-16T05:21:21;125.07;;;82.57;;
51020;SDS011;38907;45.562;8.856;2024-01-16T05:26:24;122.68;;;82.43;;
51020;SDS011;38907;45.562;8.856;2024-01-16T05:31:26;129.35;;;84.47;;
51020;SDS011;38907;45.562;8.856;2024-01-16T05:36:28;124.85;;;79.95;;
51020;SDS011;38907;45.562;8.856;2024-01-16T05:41:33;120.80;;;80.68;;
51020;SDS011;38907;45.562;8.856;2024-01-16T05:46:35;127.13;;;83.68;;
51020;SDS011;38907;45.562;8.856;2024-01-16T05:51:37;133.98;;;83.80;;
51020;SDS011;38907;45.562;8.856;2024-01-16T05:56:40;117.97;;;81.85;;
51020;SDS011;38907;45.562;8.856;2024-01-16T06:01:42;131.88;;;84.45;;
51020;SDS011;38907;45.562;8.856;2024-01-16T06:06:44;133.48;;;84.25;;
51020;SDS011;38907;45.562;8.856;2024-01-16T06:16:50;124.82;;;82.10;;
51020;SDS011;38907;45.562;8.856;2024-01-16T06:21:52;123.45;;;81.80;;
51020;SDS011;38907;45.562;8.856;2024-01-16T06:26:55;115.57;;;79.32;;
51020;SDS011;38907;45.562;8.856;2024-01-16T06:31:57;122.50;;;80.88;;
51020;SDS011;38907;45.562;8.856;2024-01-16T06:36:59;118.03;;;80.72;;
51020;SDS011;38907;45.562;8.856;2024-01-16T06:42:02;135.75;;;87.78;;
51020;SDS011;38907;45.562;8.856;2024-01-16T06:47:05;131.43;;;86.82;;
51020;SDS011;38907;45.562;8.856;2024-01-16T06:52:07;136.63;;;88.63;;
51020;SDS011;38907;45.562;8.856;2024-01-16T06:57:10;140.00;;;92.55;;
51020;SDS011;38907;45.562;8.856;2024-01-16T07:02:12;138.13;;;93.00;;
51020;SDS011;38907;45.562;8.856;2024-01-16T07:07:14;142.15;;;94.32;;
51020;SDS011;38907;45.562;8.856;2024-01-16T07:12:17;136.73;;;90.68;;
51020;SDS011;38907;45.562;8.856;2024-01-16T07:17:19;140.95;;;90.63;;
51020;SDS011;38907;45.562;8.856;2024-01-16T07:22:21;138.98;;;94.07;;
51020;SDS011;38907;45.562;8.856;2024-01-16T07:27:24;150.25;;;97.75;;
51020;SDS011;38907;45.562;8.856;2024-01-16T07:32:26;133.68;;;86.30;;
51020;SDS011;38907;45.562;8.856;2024-01-16T07:37:27;131.45;;;88.55;;
51020;SDS011;38907;45.562;8.856;2024-01-16T07:42:30;142.57;;;95.82;;
51020;SDS011;38907;45.562;8.856;2024-01-16T07:47:34;153.27;;;100.53;;
51020;SDS011;38907;45.562;8.856;2024-01-16T07:52:36;147.80;;;96.53;;
51020;SDS011;38907;45.562;8.856;2024-01-16T07:57:40;143.90;;;94.03;;
51020;SDS011;38907;45.562;8.856;2024-01-16T08:02:42;154.38;;;96.32;;
51020;SDS011;38907;45.562;8.856;2024-01-16T08:07:45;144.20;;;98.70;;
51020;SDS011;38907;45.562;8.856;2024-01-16T08:12:48;142.80;;;95.00;;
51020;SDS011;38907;45.562;8.856;2024-01-16T08:17:50;148.20;;;96.60;;
51020;SDS011;38907;45.562;8.856;2024-01-16T08:22:53;147.18;;;93.00;;
51020;SDS011;38907;45.562;8.856;2024-01-16T08:27:56;152.25;;;101.90;;
51020;SDS011;38907;45.562;8.856;2024-01-16T08:32:59;161.77;;;107.30;;
51020;SDS011;38907;45.562;8.856;2024-01-16T08:38:01;150.15;;;105.53;;
51020;SDS011;38907;45.562;8.856;2024-01-16T08:43:04;149.30;;;99.50;;
51020;SDS011;38907;45.562;8.856;2024-01-16T08:48:06;148.50;;;99.30;;
51020;SDS011;38907;45.562;8.856;2024-01-16T08:53:08;135.35;;;93.10;;
51020;SDS011;38907;45.562;8.856;2024-01-16T08:58:11;139.57;;;93.40;;
51020;SDS011;38907;45.562;8.856;2024-01-16T09:03:13;134.90;;;90.72;;
51020;SDS011;38907;45.562;8.856;2024-01-16T09:08:15;132.23;;;89.20;;
51020;SDS011;38907;45.562;8.856;2024-01-16T09:13:18;134.60;;;91.25;;
51020;SDS011;38907;45.562;8.856;2024-01-16T09:18:20;127.80;;;87.97;;
51020;SDS011;38907;45.562;8.856;2024-01-16T09:23:22;130.80;;;88.82;;
51020;SDS011;38907;45.562;8.856;2024-01-16T09:28:26;124.97;;;87.03;;
51020;SDS011;38907;45.562;8.856;2024-01-16T09:33:29;130.55;;;91.35;;
51020;SDS011;38907;45.562;8.856;2024-01-16T09:38:30;123.40;;;85.47;;
51020;SDS011;38907;45.562;8.856;2024-01-16T09:43:34;126.30;;;87.93;;
51020;SDS011;38907;45.562;8.856;2024-01-16T09:48:36;125.00;;;87.57;;
51020;SDS011;38907;45.562;8.856;2024-01-16T09:53:38;108.25;;;76.07;;
51020;SDS011;38907;45.562;8.856;2024-01-16T09:58:42;109.82;;;75.43;;
51020;SDS011;38907;45.562;8.856;2024-01-16T10:03:45;107.35;;;74.93;;
51020;SDS011;38907;45.562;8.856;2024-01-16T10:08:47;102.22;;;73.80;;
51020;SDS011;38907;45.562;8.856;2024-01-16T10:13:50;96.13;;;66.03;;
51020;SDS011;38907;45.562;8.856;2024-01-16T10:18:52;86.40;;;59.53;;
51020;SDS011;38907;45.562;8.856;2024-01-16T10:24:10;85.20;;;56.90;;
51020;SDS011;38907;45.562;8.856;2024-01-16T10:29:14;73.70;;;53.70;;
51020;SDS011;38907;45.562;8.856;2024-01-16T10:34:19;73.15;;;51.47;;
51020;SDS011;38907;45.562;8.856;2024-01-16T10:39:21;71.47;;;52.15;;
51020;SDS011;38907;45.562;8.856;2024-01-16T10:44:25;78.72;;;54.72;;
51020;SDS011;38907;45.562;8.856;2024-01-16T10:49:27;73.30;;;51.28;;
51020;SDS011;38907;45.562;8.856;2024-01-16T10:54:29;73.82;;;50.53;;
51020;SDS011;38907;45.562;8.856;2024-01-16T10:59:34;68.53;;;49.47;;
51020;SDS011;38907;45.562;8.856;2024-01-16T11:04:41;72.38;;;48.90;;
51020;SDS011;38907;45.562;8.856;2024-01-16T11:14:49;68.15;;;46.35;;
51020;SDS011;38907;45.562;8.856;2024-01-16T11:19:53;63.03;;;46.80;;
51020;SDS011;38907;45.562;8.856;2024-01-16T11:25:08;65.57;;;46.67;;
51020;SDS011;38907;45.562;8.856;2024-01-16T11:30:12;63.58;;;43.95;;
51020;SDS011;38907;45.562;8.856;2024-01-16T11:35:33;62.15;;;45.05;;
51020;SDS011;38907;45.562;8.856;2024-01-16T11:40:36;62.92;;;46.50;;
51020;SDS011;38907;45.562;8.856;2024-01-16T11:45:49;67.28;;;45.90;;
51020;SDS011;38907;45.562;8.856;2024-01-16T11:50:51;63.45;;;45.38;;
51020;SDS011;38907;45.562;8.856;2024-01-16T11:55:57;68.57;;;46.15;;
51020;SDS011;38907;45.562;8.856;2024-01-16T12:01:29;64.90;;;45.40;;
51020;SDS011;38907;45.562;8.856;2024-01-16T12:06:32;62.45;;;45.78;;
51020;SDS011;38907;45.562;8.856;2024-01-16T12:11:35;68.60;;;45.75;;
51020;SDS011;38907;45.562;8.856;2024-01-16T12:16:38;64.28;;;45.47;;
51020;SDS011;38907;45.562;8.856;2024-01-16T12:21:40;60.53;;;43.65;;
51020;SDS011;38907;45.562;8.856;2024-01-16T12:26:42;67.13;;;46.77;;
51020;SDS011;38907;45.562;8.856;2024-01-16T12:31:46;62.00;;;45.22;;
51020;SDS011;38907;45.562;8.856;2024-01-16T12:36:47;58.35;;;41.85;;
51020;SDS011;38907;45.562;8.856;2024-01-16T12:42:06;56.28;;;39.58;;
51020;SDS011;38907;45.562;8.856;2024-01-16T12:47:11;55.42;;;39.67;;
51020;SDS011;38907;45.562;8.856;2024-01-16T12:52:17;51.10;;;37.13;;
51020;SDS011;38907;45.562;8.856;2024-01-16T12:57:20;60.38;;;41.03;;
51020;SDS011;38907;45.562;8.856;2024-01-16T13:02:24;62.00;;;41.65;;
51020;SDS011;38907;45.562;8.856;2024-01-16T13:07:26;59.83;;;41.28;;
51020;SDS011;38907;45.562;8.856;2024-01-16T13:12:30;54.33;;;38.92;;
51020;SDS011;38907;45.562;8.856;2024-01-16T13:17:35;52.27;;;39.30;;
51020;SDS011;38907;45.562;8.856;2024-01-16T13:22:36;56.50;;;36.78;;
51020;SDS011;38907;45.562;8.856;2024-01-16T13:27:38;44.38;;;33.97;;
51020;SDS011;38907;45.562;8.856;2024-01-16T13:32:41;46.95;;;33.35;;
51020;SDS011;38907;45.562;8.856;2024-01-16T13:37:43;44.40;;;31.83;;
51020;SDS011;38907;45.562;8.856;2024-01-16T13:42:45;40.85;;;30.33;;
51020;SDS011;38907;45.562;8.856;2024-01-16T13:47:48;47.45;;;33.03;;
51020;SDS011;38907;45.562;8.856;2024-01-16T13:52:50;42.58;;;31.20;;
51020;SDS011;38907;45.562;8.856;2024-01-16T13:57:52;40.67;;;30.70;;
51020;SDS011;38907;45.562;8.856;2024-01-16T14:02:55;43.08;;;31.83;;
51020;SDS011;38907;45.562;8.856;2024-01-16T14:07:57;43.80;;;30.48;;
51020;SDS011;38907;45.562;8.856;2024-01-16T14:12:59;47.08;;;31.63;;
51020;SDS011;38907;45.562;8.856;2024-01-16T14:18:02;43.63;;;31.25;;
51020;SDS011;38907;45.562;8.856;2024-01-16T14:28:06;41.55;;;30.10;;
51020;SDS011;38907;45.562;8.856;2024-01-16T14:33:10;43.67;;;29.75;;
51020;SDS011;38907;45.562;8.856;2024-01-16T14:38:12;43.08;;;30.25;;
51020;SDS011;38907;45.562;8.856;2024-01-16T14:43:15;48.75;;;30.38;;
51020;SDS011;38907;45.562;8.856;2024-01-16T14:48:18;43.03;;;30.65;;
51020;SDS011;38907;45.562;8.856;2024-01-16T14:53:20;42.70;;;31.75;;
51020;SDS011;38907;45.562;8.856;2024-01-16T14:58:22;47.63;;;31.58;;
51020;SDS011;38907;45.562;8.856;2024-01-16T15:03:25;43.45;;;32.67;;
51020;SDS011;38907;45.562;8.856;2024-01-16T15:08:26;48.10;;;33.90;;
51020;SDS011;38907;45.562;8.856;2024-01-16T15:13:31;50.35;;;36.85;;
51020;SDS011;38907;45.562;8.856;2024-01-16T15:18:34;57.60;;;36.60;;
51020;SDS011;38907;45.562;8.856;2024-01-16T15:23:37;58.63;;;39.60;;
51020;SDS011;38907;45.562;8.856;2024-01-16T15:28:38;62.92;;;46.58;;
51020;SDS011;38907;45.562;8.856;2024-01-16T15:33:41;70.88;;;49.28;;
51020;SDS011;38907;45.562;8.856;2024-01-16T15:38:43;66.78;;;49.15;;
51020;SDS011;38907;45.562;8.856;2024-01-16T15:43:45;71.97;;;50.70;;
51020;SDS011;38907;45.562;8.856;2024-01-16T15:48:49;74.43;;;50.53;;
51020;SDS011;38907;45.562;8.856;2024-01-16T15:58:52;74.80;;;51.40;;
51020;SDS011;38907;45.562;8.856;2024-01-16T16:03:56;72.00;;;50.92;;
51020;SDS011;38907;45.562;8.856;2024-01-16T16:08:57;74.97;;;53.70;;
51020;SDS011;38907;45.562;8.856;2024-01-16T16:14:00;77.73;;;53.07;;
51020;SDS011;38907;45.562;8.856;2024-01-16T16:19:05;77.70;;;52.53;;
51020;SDS011;38907;45.562;8.856;2024-01-16T16:24:08;79.28;;;55.65;;
51020;SDS011;38907;45.562;8.856;2024-01-16T16:29:11;90.03;;;57.83;;
51020;SDS011;38907;45.562;8.856;2024-01-16T16:39:18;88.68;;;57.88;;
51020;SDS011;38907;45.562;8.856;2024-01-16T16:44:22;92.97;;;61.05;;
51020;SDS011;38907;45.562;8.856;2024-01-16T16:49:25;101.25;;;67.18;;
51020;SDS011;38907;45.562;8.856;2024-01-16T16:54:27;116.18;;;75.82;;
51020;SDS011;38907;45.562;8.856;2024-01-16T16:59:29;111.80;;;76.97;;
51020;SDS011;38907;45.562;8.856;2024-01-16T17:04:33;112.32;;;75.72;;
51020;SDS011;38907;45.562;8.856;2024-01-16T17:09:34;111.45;;;74.32;;
51020;SDS011;38907;45.562;8.856;2024-01-16T17:14:37;126.35;;;83.78;;
51020;SDS011;38907;45.562;8.856;2024-01-16T17:19:40;133.02;;;89.65;;
51020;SDS011;38907;45.562;8.856;2024-01-16T17:24:41;144.35;;;94.15;;
51020;SDS011;38907;45.562;8.856;2024-01-16T17:29:43;146.77;;;98.90;;
51020;SDS011;38907;45.562;8.856;2024-01-16T17:34:46;157.35;;;100.68;;
51020;SDS011;38907;45.562;8.856;2024-01-16T17:39:49;159.07;;;99.32;;
51020;SDS011;38907;45.562;8.856;2024-01-16T17:44:51;155.10;;;100.32;;
51020;SDS011;38907;45.562;8.856;2024-01-16T17:49:54;164.07;;;99.93;;
51020;SDS011;38907;45.562;8.856;2024-01-16T17:54:56;179.45;;;105.00;;
51020;SDS011;38907;45.562;8.856;2024-01-16T17:59:57;183.75;;;109.78;;
51020;SDS011;38907;45.562;8.856;2024-01-16T18:05:01;167.52;;;100.18;;
51020;SDS011;38907;45.562;8.856;2024-01-16T18:10:10;171.30;;;98.85;;
51020;SDS011;38907;45.562;8.856;2024-01-16T18:15:14;169.32;;;100.50;;
51020;SDS011;38907;45.562;8.856;2024-01-16T18:20:17;165.70;;;97.60;;
51020;SDS011;38907;45.562;8.856;2024-01-16T18:25:21;255.02;;;102.43;;
51020;SDS011;38907;45.562;8.856;2024-01-16T18:30:25;178.07;;;100.43;;
51020;SDS011;38907;45.562;8.856;2024-01-16T18:35:28;195.05;;;101.97;;
51020;SDS011;38907;45.562;8.856;2024-01-16T18:40:30;240.68;;;107.93;;
51020;SDS011;38907;45.562;8.856;2024-01-16T18:45:31;212.77;;;106.20;;
51020;SDS011;38907;45.562;8.856;2024-01-16T18:50:35;190.45;;;104.05;;
51020;SDS011;38907;45.562;8.856;2024-01-16T18:55:37;252.38;;;111.00;;
51020;SDS011;38907;45.562;8.856;2024-01-16T19:00:40;202.67;;;110.20;;
51020;SDS011;38907;45.562;8.856;2024-01-16T19:05:44;226.50;;;106.18;;
51020;SDS011;38907;45.562;8.856;2024-01-16T19:10:46;331.98;;;110.28;;
51020;SDS011;38907;45.562;8.856;2024-01-16T19:15:48;271.23;;;110.15;;
51020;SDS011;38907;45.562;8.856;2024-01-16T19:20:51;250.65;;;109.13;;
51020;SDS011;38907;45.562;8.856;2024-01-16T19:25:53;238.23;;;108.72;;
51020;SDS011;38907;45.562;8.856;2024-01-16T19:30:55;276.63;;;108.07;;
51020;SDS011;38907;45.562;8.856;2024-01-16T19:36:00;232.43;;;106.18;;
51020;SDS011;38907;45.562;8.856;2024-01-16T19:41:03;237.77;;;105.20;;
51020;SDS011;38907;45.562;8.856;2024-01-16T19:46:05;291.58;;;118.13;;
51020;SDS011;38907;45.562;8.856;2024-01-16T19:51:09;289.45;;;108.47;;
51020;SDS011;38907;45.562;8.856;2024-01-16T19:56:11;236.75;;;112.88;;
51020;SDS011;38907;45.562;8.856;2024-01-16T20:01:13;204.43;;;102.43;;
51020;SDS011;38907;45.562;8.856;2024-01-16T20:06:17;238.93;;;109.60;;
51020;SDS011;38907;45.562;8.856;2024-01-16T20:11:24;231.27;;;112.10;;
51020;SDS011;38907;45.562;8.856;2024-01-16T20:16:28;192.60;;;94.88;;
51020;SDS011;38907;45.562;8.856;2024-01-16T20:21:31;260.80;;;98.72;;
51020;SDS011;38907;45.562;8.856;2024-01-16T20:26:33;241.27;;;101.45;;
51020;SDS011;38907;45.562;8.856;2024-01-16T20:31:35;369.90;;;113.70;;
51020;SDS011;38907;45.562;8.856;2024-01-16T20:36:39;192.93;;;102.47;;
51020;SDS011;38907;45.562;8.856;2024-01-16T20:41:42;332.92;;;106.05;;
51020;SDS011;38907;45.562;8.856;2024-01-16T20:46:44;193.82;;;99.45;;
51020;SDS011;38907;45.562;8.856;2024-01-16T20:51:47;177.45;;;99.25;;
51020;SDS011;38907;45.562;8.856;2024-01-16T20:56:49;188.57;;;96.47;;
51020;SDS011;38907;45.562;8.856;2024-01-16T21:01:50;179.10;;;98.30;;
51020;SDS011;38907;45.562;8.856;2024-01-16T21:06:55;191.65;;;96.85;;
51020;SDS011;38907;45.562;8.856;2024-01-16T21:12:00;169.90;;;96.55;;
51020;SDS011;38907;45.562;8.856;2024-01-16T21:17:01;145.98;;;93.30;;
51020;SDS011;38907;45.562;8.856;2024-01-16T21:22:08;164.52;;;94.82;;
51020;SDS011;38907;45.562;8.856;2024-01-16T21:27:10;151.93;;;89.78;;
51020;SDS011;38907;45.562;8.856;2024-01-16T21:32:14;198.13;;;101.97;;
51020;SDS011;38907;45.562;8.856;2024-01-16T21:37:17;189.63;;;99.28;;
51020;SDS011;38907;45.562;8.856;2024-01-16T21:42:19;173.50;;;91.50;;
51020;SDS011;38907;45.562;8.856;2024-01-16T21:47:21;151.20;;;91.57;;
51020;SDS011;38907;45.562;8.856;2024-01-16T21:52:25;147.70;;;88.72;;
51020;SDS011;38907;45.562;8.856;2024-01-16T21:57:27;162.65;;;99.03;;
51020;SDS011;38907;45.562;8.856;2024-01-16T22:07:35;147.07;;;86.97;;
51020;SDS011;38907;45.562;8.856;2024-01-16T22:12:37;152.02;;;90.25;;
51020;SDS011;38907;45.562;8.856;2024-01-16T22:17:39;156.27;;;92.50;;
51020;SDS011;38907;45.562;8.856;2024-01-16T22:22:43;175.63;;;103.20;;
51020;SDS011;38907;45.562;8.856;2024-01-16T22:27:45;170.35;;;101.70;;
51020;SDS011;38907;45.562;8.856;2024-01-16T22:32:48;172.75;;;102.72;;
51020;SDS011;38907;45.562;8.856;2024-01-16T22:37:51;148.23;;;94.93;;
51020;SDS011;38907;45.562;8.856;2024-01-16T22:47:55;145.65;;;90.45;;
51020;SDS011;38907;45.562;8.856;2024-01-16T22:53:00;149.15;;;93.13;;
51020;SDS011;38907;45.562;8.856;2024-01-16T22:58:02;142.60;;;89.45;;
51020;SDS011;38907;45.562;8.856;2024-01-16T23:03:04;142.45;;;89.38;;
51020;SDS011;38907;45.562;8.856;2024-01-16T23:08:10;138.98;;;87.28;;
51020;SDS011;38907;45.562;8.856;2024-01-16T23:13:11;137.93;;;87.25;;
51020;SDS011;38907;45.562;8.856;2024-01-16T23:18:13;143.18;;;89.43;;
51020;SDS011;38907;45.562;8.856;2024-01-16T23:23:16;144.23;;;88.22;;
51020;SDS011;38907;45.562;8.856;2024-01-16T23:28:18;131.07;;;83.82;;
51020;SDS011;38907;45.562;8.856;2024-01-16T23:33:20;141.70;;;88.60;;
51020;SDS011;38907;45.562;8.856;2024-01-16T23:38:24;160.00;;;96.18;;
51020;SDS011;38907;45.562;8.856;2024-01-16T23:43:26;149.93;;;90.95;;
51020;SDS011;38907;45.562;8.856;2024-01-16T23:48:33;153.73;;;90.20;;
51020;SDS011;38907;45.562;8.856;2024-01-16T23:53:36;138.23;;;86.22;;
51020;SDS011;38907;45.562;8.856;2024-01-16T23:58:38;151.60;;;91.30;;
